Time;durP1;ratioP1;P1;durP2;ratioP2;P2;SDS_P1;SDS_P2;PMS_P1;PMS_P2;Temp;Humidity;BMP_temperature;BMP_pressure;BME280_temperature;BME280_humidity;BME280_pressure;Samples;Min_cycle;Max_cycle;Signal;HPM_P1;HPM_P2
2023/03/14 00:02:17;;;;;;;;;1.00;1.00;;;;;;;;5074889;27;46480;-59
2023/03/14 00:04:43;;;;;;;;;1.33;0.00;;;;;;;;5069381;27;45489;-59
2023/03/14 00:07:10;;;;;;;;;1.33;1.33;;;;;;;;5057337;28;45574;-59
2023/03/14 00:09:36;;;;;;;;;1.67;0.67;;;;;;;;5056416;27;45482;-59
2023/03/14 00:12:02;;;;;;;;;0.33;0.00;;;;;;;;5046395;28;45592;-59
2023/03/14 00:14:28;;;;;;;;;2.00;0.00;;;;;;;;5044043;28;45552;-58
2023/03/14 00:16:53;;;;;;;;;1.00;1.00;;;;;;;;5073147;28;45547;-58
2023/03/14 00:19:19;;;;;;;;;0.00;0.00;;;;;;;;5073858;27;45612;-59
2023/03/14 00:21:44;;;;;;;;;1.00;0.00;;;;;;;;5048349;28;47468;-59
2023/03/14 00:24:10;;;;;;;;;0.00;0.00;;;;;;;;5053996;28;45408;-59
2023/03/14 00:26:35;;;;;;;;;2.00;0.00;;;;;;;;5068825;27;45407;-59
2023/03/14 00:29:01;;;;;;;;;0.00;0.00;;;;;;;;5050707;28;45775;-59
2023/03/14 00:31:26;;;;;;;;;0.00;0.00;;;;;;;;5065783;27;45475;-59
2023/03/14 00:33:52;;;;;;;;;1.00;1.00;;;;;;;;5061165;27;45571;-59
2023/03/14 00:36:20;;;;;;;;;1.00;1.00;;;;;;;;5062665;28;45592;-59
2023/03/14 00:38:46;;;;;;;;;1.00;0.00;;;;;;;;5068750;27;45423;-59
2023/03/14 00:41:13;;;;;;;;;2.00;0.00;;;;;;;;5058425;27;46391;-59
2023/03/14 00:43:39;;;;;;;;;0.00;0.00;;;;;;;;5074443;27;45418;-58
2023/03/14 00:46:05;;;;;;;;;1.00;0.00;;;;;;;;5074468;27;45571;-59
2023/03/14 00:48:30;;;;;;;;;0.00;0.00;;;;;;;;5074625;28;45550;-59
2023/03/14 00:50:56;;;;;;;;;0.00;0.00;;;;;;;;5074274;27;47112;-59
2023/03/14 00:53:22;;;;;;;;;2.00;2.00;;;;;;;;5060118;27;45536;-58
2023/03/14 00:55:47;;;;;;;;;1.00;1.00;;;;;;;;5069470;28;45489;-59
2023/03/14 00:58:14;;;;;;;;;0.00;0.00;;;;;;;;5072261;27;45549;-59
2023/03/14 01:00:39;;;;;;;;;1.67;1.67;;;;;;;;5074072;27;46454;-59
2023/03/14 01:03:04;;;;;;;;;0.00;0.00;;;;;;;;5074085;27;46093;-59
2023/03/14 01:05:30;;;;;;;;;2.00;1.00;;;;;;;;5070738;28;45460;-59
2023/03/14 01:07:55;;;;;;;;;0.00;0.00;;;;;;;;5068546;28;45430;-59
2023/03/14 01:10:21;;;;;;;;;3.33;1.00;;;;;;;;5055685;28;47871;-59
2023/03/14 01:12:48;;;;;;;;;2.00;2.00;;;;;;;;5072084;27;45540;-59
2023/03/14 01:15:13;;;;;;;;;1.33;1.00;;;;;;;;5072631;28;45551;-59
2023/03/14 01:17:39;;;;;;;;;0.33;0.33;;;;;;;;5074342;28;45576;-59
2023/03/14 01:20:06;;;;;;;;;2.00;2.00;;;;;;;;5074001;27;45998;-59
2023/03/14 01:22:31;;;;;;;;;0.67;0.67;;;;;;;;5066621;27;45513;-59
2023/03/14 01:24:56;;;;;;;;;1.00;1.00;;;;;;;;5074053;27;45417;-59
2023/03/14 01:27:22;;;;;;;;;3.67;1.67;;;;;;;;5073688;28;45486;-59
2023/03/14 01:29:47;;;;;;;;;0.33;0.33;;;;;;;;5071303;27;46089;-59
2023/03/14 01:32:12;;;;;;;;;1.00;1.00;;;;;;;;5072122;27;45470;-59
2023/03/14 01:34:37;;;;;;;;;2.00;0.00;;;;;;;;5073892;27;45541;-59
2023/03/14 01:37:03;;;;;;;;;1.33;1.33;;;;;;;;5073048;27;45453;-58
2023/03/14 01:39:28;;;;;;;;;5.67;1.00;;;;;;;;5055227;27;45548;-59
2023/03/14 01:41:53;;;;;;;;;1.67;1.67;;;;;;;;5032377;28;45561;-59
2023/03/14 01:44:18;;;;;;;;;3.00;2.00;;;;;;;;5058248;28;45516;-58
2023/03/14 01:46:45;;;;;;;;;1.33;1.33;;;;;;;;5060981;28;45435;-59
2023/03/14 01:49:12;;;;;;;;;0.00;0.00;;;;;;;;5062187;27;45502;-59
2023/03/14 01:51:41;;;;;;;;;1.00;1.00;;;;;;;;5056778;28;45647;-59
2023/03/14 01:54:26;;;;;;;;;3.33;1.00;;;;;;;;5061315;28;45509;-59
2023/03/14 01:56:56;;;;;;;;;0.33;0.00;;;;;;;;5020706;28;45432;-58
2023/03/14 01:59:21;;;;;;;;;1.00;0.00;;;;;;;;5061331;28;46263;-59
2023/03/14 02:01:47;;;;;;;;;0.00;0.00;;;;;;;;5069009;28;45443;-59
2023/03/14 02:04:14;;;;;;;;;3.00;0.33;;;;;;;;5051339;28;45514;-59
2023/03/14 02:06:48;;;;;;;;;1.00;1.00;;;;;;;;5051552;28;45507;-59
2023/03/14 02:09:14;;;;;;;;;0.67;0.00;;;;;;;;5044344;28;45428;-59
2023/03/14 02:11:39;;;;;;;;;0.00;0.00;;;;;;;;5053557;28;45495;-59
2023/03/14 02:14:05;;;;;;;;;1.33;1.00;;;;;;;;5053483;28;45470;-59
2023/03/14 02:16:30;;;;;;;;;1.00;0.00;;;;;;;;5053371;28;45498;-58
2023/03/14 02:18:56;;;;;;;;;0.00;0.00;;;;;;;;5053144;28;45490;-59
2023/03/14 02:21:37;;;;;;;;;1.00;0.00;;;;;;;;5048339;28;45475;-59
2023/03/14 02:24:09;;;;;;;;;1.00;0.00;;;;;;;;5050135;28;45550;-59
2023/03/14 02:26:38;;;;;;;;;0.00;0.00;;;;;;;;5053139;28;45435;-59
2023/03/14 02:29:03;;;;;;;;;1.33;0.67;;;;;;;;5052507;28;45439;-59
2023/03/14 02:31:28;;;;;;;;;0.00;0.00;;;;;;;;5053074;28;45645;-59
2023/03/14 02:33:55;;;;;;;;;2.67;0.00;;;;;;;;5050073;28;45506;-59
2023/03/14 02:36:20;;;;;;;;;1.00;0.00;;;;;;;;5045908;28;45618;-59
2023/03/14 02:38:55;;;;;;;;;0.00;0.00;;;;;;;;5052061;28;45469;-60
2023/03/14 02:41:21;;;;;;;;;0.00;0.00;;;;;;;;5054718;28;45440;-59
2023/03/14 02:43:46;;;;;;;;;0.00;0.00;;;;;;;;5052737;28;45510;-59
2023/03/14 02:46:12;;;;;;;;;2.00;0.00;;;;;;;;5056614;28;45705;-59
2023/03/14 02:48:37;;;;;;;;;1.00;0.00;;;;;;;;5062068;27;46420;-59
2023/03/14 02:51:03;;;;;;;;;0.00;0.00;;;;;;;;5065371;27;45585;-59
2023/03/14 02:53:31;;;;;;;;;0.00;0.00;;;;;;;;5062551;27;45576;-59
2023/03/14 02:55:56;;;;;;;;;1.00;0.00;;;;;;;;5067140;28;45372;-59
2023/03/14 02:58:21;;;;;;;;;0.00;0.00;;;;;;;;5076721;27;45601;-59
2023/03/14 03:00:47;;;;;;;;;0.67;0.00;;;;;;;;5059717;28;45694;-58
2023/03/14 03:03:12;;;;;;;;;0.00;0.00;;;;;;;;5064647;27;45458;-59
2023/03/14 03:05:37;;;;;;;;;2.00;1.00;;;;;;;;5077050;28;45415;-59
2023/03/14 03:08:03;;;;;;;;;0.00;0.00;;;;;;;;5077150;27;46014;-59
2023/03/14 03:10:29;;;;;;;;;0.00;0.00;;;;;;;;5058373;28;45880;-59
2023/03/14 03:12:54;;;;;;;;;1.00;1.00;;;;;;;;5076940;27;45494;-58
2023/03/14 03:15:19;;;;;;;;;0.00;0.00;;;;;;;;5076977;27;46105;-59
2023/03/14 03:17:44;;;;;;;;;0.00;0.00;;;;;;;;5059034;28;46168;-59
2023/03/14 03:20:10;;;;;;;;;0.00;0.00;;;;;;;;5076698;27;45494;-59
2023/03/14 03:22:36;;;;;;;;;0.00;0.00;;;;;;;;5077228;27;45473;-59
2023/03/14 03:25:01;;;;;;;;;0.00;0.00;;;;;;;;5067792;27;45453;-59
2023/03/14 03:27:26;;;;;;;;;0.00;0.00;;;;;;;;5076642;27;45653;-59
2023/03/14 03:29:52;;;;;;;;;0.00;0.00;;;;;;;;5070289;27;45558;-58
2023/03/14 03:32:17;;;;;;;;;0.00;0.00;;;;;;;;5069317;27;45462;-58
2023/03/14 03:34:42;;;;;;;;;0.00;0.00;;;;;;;;5066988;27;45589;-59
2023/03/14 03:37:07;;;;;;;;;0.00;0.00;;;;;;;;5070708;27;45601;-59
2023/03/14 03:39:32;;;;;;;;;0.00;0.00;;;;;;;;5068755;27;45486;-59
2023/03/14 03:41:58;;;;;;;;;0.00;0.00;;;;;;;;5076549;27;45387;-59
2023/03/14 03:44:23;;;;;;;;;0.00;0.00;;;;;;;;5076626;27;45480;-59
2023/03/14 03:46:48;;;;;;;;;0.00;0.00;;;;;;;;5076489;27;45438;-60
2023/03/14 03:49:13;;;;;;;;;0.00;0.00;;;;;;;;5069325;27;45533;-58
2023/03/14 03:51:39;;;;;;;;;0.00;0.00;;;;;;;;5063376;28;45429;-60
2023/03/14 03:54:04;;;;;;;;;0.67;0.00;;;;;;;;5056943;28;45461;-59
2023/03/14 03:56:31;;;;;;;;;0.00;0.00;;;;;;;;5057960;28;47397;-59
2023/03/14 03:58:56;;;;;;;;;0.00;0.00;;;;;;;;5075913;27;45662;-59
2023/03/14 04:01:21;;;;;;;;;0.00;0.00;;;;;;;;5071472;27;45659;-59
2023/03/14 04:03:46;;;;;;;;;1.00;0.00;;;;;;;;5065812;28;45484;-60
2023/03/14 04:06:13;;;;;;;;;0.00;0.00;;;;;;;;5070191;27;46058;-59
2023/03/14 04:08:39;;;;;;;;;0.00;0.00;;;;;;;;5076038;27;45540;-59
2023/03/14 04:11:04;;;;;;;;;0.00;0.00;;;;;;;;5075986;27;45538;-59
2023/03/14 04:13:29;;;;;;;;;0.00;0.00;;;;;;;;5075286;27;45603;-59
2023/03/14 04:15:55;;;;;;;;;0.33;0.00;;;;;;;;5072245;27;46075;-59
2023/03/14 04:18:21;;;;;;;;;0.00;0.00;;;;;;;;5075673;27;45647;-59
2023/03/14 04:20:56;;;;;;;;;1.00;0.00;;;;;;;;5075958;27;45516;-59
2023/03/14 04:23:25;;;;;;;;;0.00;0.00;;;;;;;;5075685;28;45449;-59
2023/03/14 04:25:51;;;;;;;;;0.00;0.00;;;;;;;;5075303;27;45556;-59
2023/03/14 04:28:16;;;;;;;;;0.00;0.00;;;;;;;;5074841;27;45442;-59
2023/03/14 04:30:42;;;;;;;;;1.00;0.00;;;;;;;;5061879;28;45443;-59
2023/03/14 04:33:07;;;;;;;;;0.00;0.00;;;;;;;;5073696;27;45463;-59
2023/03/14 04:35:33;;;;;;;;;0.00;0.00;;;;;;;;5066107;28;45943;-59
2023/03/14 04:37:59;;;;;;;;;1.00;0.00;;;;;;;;5070823;27;46284;-59
2023/03/14 04:40:24;;;;;;;;;0.00;0.00;;;;;;;;5075543;27;45524;-59
2023/03/14 04:42:49;;;;;;;;;0.00;0.00;;;;;;;;5063967;27;45533;-59
2023/03/14 04:45:14;;;;;;;;;0.67;0.00;;;;;;;;5075368;27;46140;-59
2023/03/14 04:47:39;;;;;;;;;0.00;0.00;;;;;;;;5075573;27;45514;-59
2023/03/14 04:50:05;;;;;;;;;0.00;0.00;;;;;;;;5075371;27;45635;-59
2023/03/14 04:52:30;;;;;;;;;1.00;0.00;;;;;;;;5061007;28;45624;-59
2023/03/14 04:54:55;;;;;;;;;0.00;0.00;;;;;;;;5075236;27;45552;-59
2023/03/14 04:57:20;;;;;;;;;0.00;0.00;;;;;;;;5069191;27;45557;-59
2023/03/14 04:59:46;;;;;;;;;0.00;0.00;;;;;;;;5075578;27;45431;-59
2023/03/14 05:02:11;;;;;;;;;0.00;0.00;;;;;;;;5060085;28;45594;-59
2023/03/14 05:04:36;;;;;;;;;0.00;0.00;;;;;;;;5064589;28;45499;-59
2023/03/14 05:07:01;;;;;;;;;1.00;1.00;;;;;;;;5068822;28;45336;-58
2023/03/14 05:09:27;;;;;;;;;1.67;1.67;;;;;;;;5069400;28;45550;-60
2023/03/14 05:11:52;;;;;;;;;0.67;0.67;;;;;;;;5074200;27;45641;-59
2023/03/14 05:14:17;;;;;;;;;1.00;1.00;;;;;;;;5074874;27;46140;-59
2023/03/14 05:16:42;;;;;;;;;3.00;1.33;;;;;;;;5074660;27;45507;-59
2023/03/14 05:19:07;;;;;;;;;2.00;2.00;;;;;;;;5072978;27;45513;-59
2023/03/14 05:21:33;;;;;;;;;2.00;2.00;;;;;;;;5074996;27;45521;-60
2023/03/14 05:23:58;;;;;;;;;2.33;1.00;;;;;;;;5074773;27;46318;-59
2023/03/14 05:26:23;;;;;;;;;1.33;1.33;;;;;;;;5074801;27;46045;-60
2023/03/14 05:28:48;;;;;;;;;2.00;2.00;;;;;;;;5074935;27;45649;-59
2023/03/14 05:31:14;;;;;;;;;1.00;1.00;;;;;;;;5068945;27;45504;-59
2023/03/14 05:33:39;;;;;;;;;2.00;2.00;;;;;;;;5070904;27;46354;-59
2023/03/14 05:36:05;;;;;;;;;2.00;2.00;;;;;;;;5074379;27;45518;-58
2023/03/14 05:38:30;;;;;;;;;3.00;2.00;;;;;;;;5074822;28;45507;-59
2023/03/14 05:40:55;;;;;;;;;2.00;2.00;;;;;;;;5074673;28;45473;-59
2023/03/14 05:43:20;;;;;;;;;2.00;2.00;;;;;;;;5074160;27;45545;-59
2023/03/14 05:45:45;;;;;;;;;2.67;1.33;;;;;;;;5074548;27;45526;-59
2023/03/14 05:48:11;;;;;;;;;5.00;3.67;;;;;;;;5047058;28;45491;-59
2023/03/14 05:50:36;;;;;;;;;2.67;2.67;;;;;;;;5070028;27;45493;-59
2023/03/14 05:53:01;;;;;;;;;2.67;2.67;;;;;;;;5064378;27;45701;-59
2023/03/14 05:55:26;;;;;;;;;3.00;1.00;;;;;;;;5040489;28;45486;-59
2023/03/14 05:57:52;;;;;;;;;4.00;3.00;;;;;;;;5074736;28;45466;-58
2023/03/14 06:00:18;;;;;;;;;2.00;2.00;;;;;;;;5070713;28;45575;-59
2023/03/14 06:02:43;;;;;;;;;3.67;1.67;;;;;;;;5061265;28;45450;-61
2023/03/14 06:05:08;;;;;;;;;2.00;2.00;;;;;;;;5062422;27;45470;-58
2023/03/14 06:07:33;;;;;;;;;4.00;3.00;;;;;;;;5062647;27;45615;-59
2023/03/14 06:09:58;;;;;;;;;2.33;2.33;;;;;;;;5063599;28;45445;-59
2023/03/14 06:12:24;;;;;;;;;1.33;1.33;;;;;;;;5073649;27;46326;-59
2023/03/14 06:14:49;;;;;;;;;2.00;2.00;;;;;;;;5060911;27;45507;-59
2023/03/14 06:17:15;;;;;;;;;2.00;1.00;;;;;;;;5074335;28;45476;-59
2023/03/14 06:19:41;;;;;;;;;2.67;1.00;;;;;;;;5074248;27;45537;-59
2023/03/14 06:22:06;;;;;;;;;3.00;1.67;;;;;;;;5062606;27;45483;-59
2023/03/14 06:24:31;;;;;;;;;2.67;2.67;;;;;;;;5058016;27;45534;-59
2023/03/14 06:26:56;;;;;;;;;3.33;3.33;;;;;;;;5074039;27;45432;-60
2023/03/14 06:29:21;;;;;;;;;3.00;3.00;;;;;;;;5073813;27;45481;-59
2023/03/14 06:31:46;;;;;;;;;3.67;3.33;;;;;;;;5043805;28;45760;-59
2023/03/14 06:34:12;;;;;;;;;2.67;2.67;;;;;;;;5058448;27;45534;-58
2023/03/14 06:36:37;;;;;;;;;3.00;3.00;;;;;;;;5063913;28;45547;-59
2023/03/14 06:39:02;;;;;;;;;3.33;1.00;;;;;;;;5064354;28;45551;-60
2023/03/14 06:41:27;;;;;;;;;3.33;3.00;;;;;;;;5056097;27;45534;-61
2023/03/14 06:43:53;;;;;;;;;2.00;2.00;;;;;;;;5054246;28;45503;-60
2023/03/14 06:46:18;;;;;;;;;7.33;3.00;;;;;;;;5068434;27;45507;-61
2023/03/14 06:48:43;;;;;;;;;3.67;3.00;;;;;;;;5064352;27;46008;-61
2023/03/14 06:51:08;;;;;;;;;3.00;3.00;;;;;;;;5063560;27;45478;-61
2023/03/14 06:53:34;;;;;;;;;3.00;3.00;;;;;;;;5054551;27;45498;-61
2023/03/14 06:55:59;;;;;;;;;4.00;3.00;;;;;;;;5058124;27;45434;-62
2023/03/14 06:58:24;;;;;;;;;3.67;3.00;;;;;;;;5072334;27;45537;-60
2023/03/14 07:00:49;;;;;;;;;3.00;3.00;;;;;;;;5046627;27;45791;-64
2023/03/14 07:03:15;;;;;;;;;4.00;2.67;;;;;;;;5072592;28;45564;-64
2023/03/14 07:05:41;;;;;;;;;5.00;3.67;;;;;;;;5062590;27;45515;-63
2023/03/14 07:08:06;;;;;;;;;3.00;2.67;;;;;;;;5050254;28;45581;-62
2023/03/14 07:10:31;;;;;;;;;5.00;5.00;;;;;;;;5066325;27;45598;-63
2023/03/14 07:12:57;;;;;;;;;8.00;7.00;;;;;;;;5067892;28;45502;-62
2023/03/14 07:15:22;;;;;;;;;4.00;4.00;;;;;;;;5064482;28;45568;-62
2023/03/14 07:17:48;;;;;;;;;3.00;3.00;;;;;;;;5059691;27;45586;-60
2023/03/14 07:20:13;;;;;;;;;2.67;1.67;;;;;;;;5051809;28;45842;-63
2023/03/14 07:22:38;;;;;;;;;3.33;3.33;;;;;;;;5064055;27;45553;-62
2023/03/14 07:25:04;;;;;;;;;1.33;1.33;;;;;;;;5072319;27;45638;-64
2023/03/14 07:27:29;;;;;;;;;1.67;1.67;;;;;;;;5072023;27;45587;-60
2023/03/14 07:29:54;;;;;;;;;5.00;4.00;;;;;;;;5062893;27;46161;-60
2023/03/14 07:32:19;;;;;;;;;3.00;3.00;;;;;;;;5051591;28;45598;-64
2023/03/14 07:34:44;;;;;;;;;3.33;3.00;;;;;;;;5052882;28;45612;-60
2023/03/14 07:37:10;;;;;;;;;3.00;3.00;;;;;;;;5053228;28;45531;-59
2023/03/14 07:39:35;;;;;;;;;2.00;2.00;;;;;;;;5070397;27;46576;-63
2023/03/14 07:42:00;;;;;;;;;4.67;3.67;;;;;;;;5075263;27;45509;-68
2023/03/14 07:44:26;;;;;;;;;3.00;2.00;;;;;;;;5060352;28;45515;-71
2023/03/14 07:46:51;;;;;;;;;1.67;1.67;;;;;;;;5056763;27;45650;-63
2023/03/14 07:49:16;;;;;;;;;4.00;2.00;;;;;;;;5031599;28;45577;-66
2023/03/14 07:51:43;;;;;;;;;4.00;2.33;;;;;;;;5058609;27;45495;-63
2023/03/14 07:54:09;;;;;;;;;2.33;2.33;;;;;;;;5066168;27;45542;-63
2023/03/14 07:56:34;;;;;;;;;3.00;2.00;;;;;;;;5051873;28;45678;-66
2023/03/14 07:58:59;;;;;;;;;5.00;3.00;;;;;;;;5054754;28;45519;-63
2023/03/14 08:01:24;;;;;;;;;1.33;1.00;;;;;;;;5064314;28;45408;-64
2023/03/14 08:03:49;;;;;;;;;3.67;2.67;;;;;;;;5075013;27;45420;-63
2023/03/14 08:06:15;;;;;;;;;2.33;1.00;;;;;;;;5075093;27;45558;-64
2023/03/14 08:08:40;;;;;;;;;3.33;2.33;;;;;;;;5075019;27;45985;-63
2023/03/14 08:11:08;;;;;;;;;5.00;2.33;;;;;;;;5059309;27;45508;-62
2023/03/14 08:13:33;;;;;;;;;3.67;3.00;;;;;;;;5067535;27;45473;-65
2023/03/14 08:15:58;;;;;;;;;2.33;2.33;;;;;;;;5036464;27;45543;-63
2023/03/14 08:18:23;;;;;;;;;4.67;2.00;;;;;;;;5062268;27;46053;-64
2023/03/14 08:20:49;;;;;;;;;4.33;1.67;;;;;;;;5059092;28;45585;-60
2023/03/14 08:23:14;;;;;;;;;4.33;3.00;;;;;;;;5050320;28;45524;-61
2023/03/14 08:25:39;;;;;;;;;2.33;1.33;;;;;;;;5048633;27;45569;-64
2023/03/14 08:28:04;;;;;;;;;3.67;3.00;;;;;;;;5072601;27;46123;-62
2023/03/14 08:30:29;;;;;;;;;6.33;2.00;;;;;;;;5074123;27;45488;-64
2023/03/14 08:32:56;;;;;;;;;2.00;2.00;;;;;;;;5052770;27;45462;-63
2023/03/14 08:35:21;;;;;;;;;2.33;1.00;;;;;;;;5062449;27;45593;-62
2023/03/14 08:37:47;;;;;;;;;3.00;3.00;;;;;;;;5042118;28;46741;-67
2023/03/14 08:40:12;;;;;;;;;2.00;1.00;;;;;;;;5051333;28;45572;-64
2023/03/14 08:42:38;;;;;;;;;1.00;1.00;;;;;;;;5049910;28;45478;-63
2023/03/14 08:45:04;;;;;;;;;1.67;1.67;;;;;;;;5071717;27;45634;-61
2023/03/14 08:47:29;;;;;;;;;3.00;2.67;;;;;;;;5067913;27;45419;-64
2023/03/14 08:49:55;;;;;;;;;3.00;2.00;;;;;;;;5061830;28;45591;-64
2023/03/14 08:52:20;;;;;;;;;4.00;2.00;;;;;;;;5050444;28;45516;-65
2023/03/14 08:54:45;;;;;;;;;3.33;3.00;;;;;;;;5052753;27;45533;-64
2023/03/14 08:57:11;;;;;;;;;5.00;4.00;;;;;;;;5055332;28;46588;-66
2023/03/14 08:59:36;;;;;;;;;2.00;2.00;;;;;;;;5034381;28;45653;-66
2023/03/14 09:02:03;;;;;;;;;2.00;1.33;;;;;;;;5067757;27;45584;-63
2023/03/14 09:04:28;;;;;;;;;1.00;1.00;;;;;;;;5067864;27;45558;-65
2023/03/14 09:06:53;;;;;;;;;1.00;1.00;;;;;;;;5065631;28;45436;-66
2023/03/14 09:09:19;;;;;;;;;2.33;2.00;;;;;;;;5073815;27;45566;-63
2023/03/14 09:11:44;;;;;;;;;1.67;0.67;;;;;;;;5074286;27;45355;-66
2023/03/14 09:14:12;;;;;;;;;1.67;1.67;;;;;;;;5071563;27;45520;-67
2023/03/14 09:16:37;;;;;;;;;2.00;2.00;;;;;;;;5062308;27;45467;-67
2023/03/14 09:19:02;;;;;;;;;3.00;3.00;;;;;;;;5069377;27;45578;-67
2023/03/14 09:21:28;;;;;;;;;3.33;2.33;;;;;;;;5060891;27;45497;-66
2023/03/14 09:23:53;;;;;;;;;3.67;2.67;;;;;;;;5055100;27;45415;-67
2023/03/14 09:26:18;;;;;;;;;2.67;2.33;;;;;;;;5056239;28;46008;-63
2023/03/14 09:28:43;;;;;;;;;4.67;2.00;;;;;;;;5073595;27;45465;-62
2023/03/14 09:31:10;;;;;;;;;2.67;2.67;;;;;;;;5070356;27;45573;-61
2023/03/14 09:33:35;;;;;;;;;2.33;2.00;;;;;;;;5061333;28;45533;-65
2023/03/14 09:36:01;;;;;;;;;3.00;2.67;;;;;;;;5033420;28;48223;-68
2023/03/14 09:38:26;;;;;;;;;3.33;1.67;;;;;;;;5064507;27;45564;-67
2023/03/14 09:40:52;;;;;;;;;1.00;0.00;;;;;;;;5060997;28;45561;-59
2023/03/14 09:43:20;;;;;;;;;4.00;3.00;;;;;;;;5068086;27;45501;-67
2023/03/14 09:45:46;;;;;;;;;0.00;0.00;;;;;;;;5041813;28;45526;-63
2023/03/14 09:48:31;;;;;;;;;2.33;1.00;;;;;;;;5068381;27;45502;-67
2023/03/14 09:50:58;;;;;;;;;4.00;3.00;;;;;;;;5056322;27;45423;-63
2023/03/14 09:53:26;;;;;;;;;3.00;3.00;;;;;;;;5058005;27;45641;-62
2023/03/14 09:55:55;;;;;;;;;2.00;2.00;;;;;;;;5067024;27;45482;-63
2023/03/14 09:58:21;;;;;;;;;1.33;1.00;;;;;;;;5073342;27;45666;-65
2023/03/14 10:00:47;;;;;;;;;2.00;1.00;;;;;;;;5074023;27;46191;-64
2023/03/14 10:03:15;;;;;;;;;2.33;1.00;;;;;;;;5065764;27;45559;-65
2023/03/14 10:05:41;;;;;;;;;1.00;1.00;;;;;;;;5051732;28;46363;-69
2023/03/14 10:08:09;;;;;;;;;1.00;1.00;;;;;;;;5073456;28;45444;-63
2023/03/14 10:10:34;;;;;;;;;0.00;0.00;;;;;;;;5073878;27;45501;-65
2023/03/14 10:13:10;;;;;;;;;0.33;0.00;;;;;;;;5073926;27;45396;-62
2023/03/14 10:15:37;;;;;;;;;2.00;0.00;;;;;;;;5073560;27;45505;-64
2023/03/14 10:18:03;;;;;;;;;0.00;0.00;;;;;;;;5073559;27;45461;-65
2023/03/14 10:20:43;;;;;;;;;0.33;0.33;;;;;;;;5068593;27;45502;-66
2023/03/14 10:23:11;;;;;;;;;0.00;0.00;;;;;;;;5056719;27;45560;-62
2023/03/14 10:25:37;;;;;;;;;0.00;0.00;;;;;;;;5072265;27;46710;-65
2023/03/14 10:28:11;;;;;;;;;1.00;1.00;;;;;;;;5073176;27;45552;-62
2023/03/14 10:30:46;;;;;;;;;0.33;0.33;;;;;;;;5052304;27;45364;-65
2023/03/14 10:33:19;;;;;;;;;1.33;1.00;;;;;;;;5073474;27;45567;-63
2023/03/14 10:35:44;;;;;;;;;2.00;2.00;;;;;;;;5072948;27;46218;-64
2023/03/14 10:38:14;;;;;;;;;0.33;0.33;;;;;;;;5062958;27;45538;-67
2023/03/14 10:40:40;;;;;;;;;3.67;1.00;;;;;;;;5063903;28;45525;-66
2023/03/14 10:43:07;;;;;;;;;2.00;1.00;;;;;;;;5057618;27;45708;-63
2023/03/14 10:45:32;;;;;;;;;2.00;1.67;;;;;;;;5065562;27;46065;-66
2023/03/14 10:47:58;;;;;;;;;0.00;0.00;;;;;;;;5066970;27;45475;-66
2023/03/14 10:50:28;;;;;;;;;1.33;1.33;;;;;;;;5071020;27;45594;-66
2023/03/14 10:52:54;;;;;;;;;2.33;1.00;;;;;;;;5053366;28;45635;-66
2023/03/14 10:55:20;;;;;;;;;0.67;0.33;;;;;;;;5050211;28;46020;-64
2023/03/14 10:57:45;;;;;;;;;1.33;1.33;;;;;;;;5066287;27;45541;-65
2023/03/14 11:00:19;;;;;;;;;2.00;1.33;;;;;;;;5050801;28;46070;-63
2023/03/14 11:02:44;;;;;;;;;4.33;3.00;;;;;;;;5051885;27;45609;-62
2023/03/14 11:05:15;;;;;;;;;6.33;6.33;;;;;;;;5072777;27;46107;-61
2023/03/14 11:07:42;;;;;;;;;8.33;7.33;;;;;;;;5057031;28;45448;-61
2023/03/14 11:10:25;;;;;;;;;1.33;1.00;;;;;;;;5066649;27;45533;-61
2023/03/14 11:12:50;;;;;;;;;1.00;1.00;;;;;;;;5065910;27;45649;-62
2023/03/14 11:15:38;;;;;;;;;1.00;1.00;;;;;;;;5064098;27;46037;-66
2023/03/14 11:18:03;;;;;;;;;1.00;1.00;;;;;;;;5052952;28;45476;-63
2023/03/14 11:20:47;;;;;;;;;2.33;2.33;;;;;;;;5068314;27;45466;-61
2023/03/14 11:23:13;;;;;;;;;2.00;1.00;;;;;;;;5057162;27;45641;-61
2023/03/14 11:25:59;;;;;;;;;0.00;0.00;;;;;;;;5058087;28;45545;-63
2023/03/14 11:28:27;;;;;;;;;2.00;1.00;;;;;;;;5052315;27;45515;-65
2023/03/14 11:30:54;;;;;;;;;1.00;1.00;;;;;;;;5069813;27;45491;-60
2023/03/14 11:33:23;;;;;;;;;1.00;1.00;;;;;;;;5075977;27;45580;-67
2023/03/14 11:36:09;;;;;;;;;0.00;0.00;;;;;;;;5070101;27;45490;-68
2023/03/14 11:38:39;;;;;;;;;0.67;0.67;;;;;;;;5039985;28;45496;-60
2023/03/14 11:41:09;;;;;;;;;1.00;1.00;;;;;;;;5052125;28;45544;-63
2023/03/14 11:43:41;;;;;;;;;1.00;1.00;;;;;;;;5053501;27;45628;-64
2023/03/14 11:46:25;;;;;;;;;4.00;2.00;;;;;;;;5055110;28;45641;-65
2023/03/14 11:48:56;;;;;;;;;3.00;3.00;;;;;;;;5049379;27;45523;-67
2023/03/14 11:51:24;;;;;;;;;1.00;1.00;;;;;;;;5058912;27;45620;-61
2023/03/14 11:53:55;;;;;;;;;1.33;0.00;;;;;;;;5072274;27;45620;-60
2023/03/14 11:56:45;;;;;;;;;0.00;0.00;;;;;;;;5075420;27;45476;-62
2023/03/14 11:59:20;;;;;;;;;0.00;0.00;;;;;;;;5075447;27;45504;-63
2023/03/14 12:02:05;;;;;;;;;2.00;0.33;;;;;;;;5065057;28;45451;-61
2023/03/14 12:04:30;;;;;;;;;3.00;1.33;;;;;;;;5047547;27;45465;-60
2023/03/14 12:06:57;;;;;;;;;1.00;0.00;;;;;;;;5062243;27;46197;-62
2023/03/14 12:09:23;;;;;;;;;1.67;1.00;;;;;;;;5055067;28;45501;-62
2023/03/14 12:11:52;;;;;;;;;1.00;1.00;;;;;;;;5055188;28;45436;-62
2023/03/14 12:14:20;;;;;;;;;0.33;0.33;;;;;;;;5036164;28;45421;-62
2023/03/14 12:16:47;;;;;;;;;0.33;0.33;;;;;;;;5045372;28;45546;-59
2023/03/14 12:19:20;;;;;;;;;0.00;0.00;;;;;;;;5035903;28;45615;-61
2023/03/14 12:21:54;;;;;;;;;0.00;0.00;;;;;;;;5029035;28;45560;-61
2023/03/14 12:24:23;;;;;;;;;1.33;1.33;;;;;;;;5052210;28;45581;-60
2023/03/14 12:27:02;;;;;;;;;2.00;0.00;;;;;;;;5065900;28;46070;-60
2023/03/14 12:29:29;;;;;;;;;0.00;0.00;;;;;;;;5058865;28;45490;-61
2023/03/14 12:32:01;;;;;;;;;0.00;0.00;;;;;;;;5024941;28;45500;-61
2023/03/14 12:34:26;;;;;;;;;0.00;0.00;;;;;;;;5050565;28;45474;-61
2023/03/14 12:37:04;;;;;;;;;1.00;1.00;;;;;;;;5049986;28;45923;-62
2023/03/14 12:39:31;;;;;;;;;1.00;1.00;;;;;;;;5054478;28;45440;-59
2023/03/14 12:42:04;;;;;;;;;1.00;1.00;;;;;;;;5054688;28;45489;-62
2023/03/14 12:44:29;;;;;;;;;1.00;1.00;;;;;;;;5048040;28;45457;-61
2023/03/14 12:47:17;;;;;;;;;0.00;0.00;;;;;;;;5052805;28;46041;-61
2023/03/14 12:49:48;;;;;;;;;1.00;0.67;;;;;;;;5035603;28;45670;-61
2023/03/14 12:52:19;;;;;;;;;1.00;1.00;;;;;;;;5057816;28;45511;-61
2023/03/14 12:54:54;;;;;;;;;2.67;0.00;;;;;;;;5048023;28;45701;-61
2023/03/14 12:57:26;;;;;;;;;2.00;1.00;;;;;;;;5070827;27;45762;-62
2023/03/14 12:59:55;;;;;;;;;0.00;0.00;;;;;;;;5056145;27;45424;-61
2023/03/14 13:02:39;;;;;;;;;1.00;1.00;;;;;;;;5053970;28;45589;-62
2023/03/14 13:05:10;;;;;;;;;2.00;0.00;;;;;;;;5056332;28;45622;-61
2023/03/14 13:07:35;;;;;;;;;1.00;0.00;;;;;;;;5050863;27;47052;-59
2023/03/14 13:10:05;;;;;;;;;1.33;1.00;;;;;;;;5069132;27;45612;-61
2023/03/14 13:12:38;;;;;;;;;0.00;0.00;;;;;;;;5067228;27;45528;-58
2023/03/14 13:15:13;;;;;;;;;2.00;1.00;;;;;;;;5073499;27;45521;-61
2023/03/14 13:17:39;;;;;;;;;1.00;0.00;;;;;;;;5072775;27;46293;-60
2023/03/14 13:20:11;;;;;;;;;3.00;0.00;;;;;;;;5062050;27;45470;-57
2023/03/14 13:22:38;;;;;;;;;0.00;0.00;;;;;;;;5061680;28;45525;-60
2023/03/14 13:25:07;;;;;;;;;1.33;0.33;;;;;;;;5055686;27;45598;-57
2023/03/14 13:27:34;;;;;;;;;2.00;0.00;;;;;;;;5058340;27;45562;-59
2023/03/14 13:30:04;;;;;;;;;1.00;1.00;;;;;;;;5073923;27;45538;-60
2023/03/14 13:32:29;;;;;;;;;1.00;1.00;;;;;;;;5073016;27;45439;-61
2023/03/14 13:34:58;;;;;;;;;2.00;0.00;;;;;;;;5063813;27;45502;-59
2023/03/14 13:37:25;;;;;;;;;0.00;0.00;;;;;;;;5073199;27;45545;-61
2023/03/14 13:39:51;;;;;;;;;2.67;0.00;;;;;;;;5072810;27;45509;-60
2023/03/14 13:42:17;;;;;;;;;1.33;1.33;;;;;;;;5073556;27;45421;-57
2023/03/14 13:44:43;;;;;;;;;1.00;0.67;;;;;;;;5073515;27;45555;-62
2023/03/14 13:47:16;;;;;;;;;0.00;0.00;;;;;;;;5067215;27;45644;-57
2023/03/14 13:49:42;;;;;;;;;0.00;0.00;;;;;;;;5064706;27;45493;-59
2023/03/14 13:52:26;;;;;;;;;1.00;1.00;;;;;;;;5041160;28;45412;-58
2023/03/14 13:54:59;;;;;;;;;0.00;0.00;;;;;;;;5055199;27;45613;-60
2023/03/14 13:57:26;;;;;;;;;1.00;1.00;;;;;;;;5070291;27;46202;-59
2023/03/14 13:59:58;;;;;;;;;1.00;1.00;;;;;;;;5054961;28;46156;-59
2023/03/14 14:02:24;;;;;;;;;0.67;0.00;;;;;;;;5073311;27;45463;-60
2023/03/14 14:04:49;;;;;;;;;0.67;0.67;;;;;;;;5073327;27;45477;-59
2023/03/14 14:07:20;;;;;;;;;0.00;0.00;;;;;;;;5073063;28;45595;-60
2023/03/14 14:09:49;;;;;;;;;1.00;1.00;;;;;;;;5073441;27;45501;-60
2023/03/14 14:12:16;;;;;;;;;1.00;1.00;;;;;;;;5073245;27;45423;-62
2023/03/14 14:15:08;;;;;;;;;0.33;0.33;;;;;;;;5073430;27;45459;-62
2023/03/14 14:17:54;;;;;;;;;0.00;0.00;;;;;;;;5048898;27;46122;-60
2023/03/14 14:20:33;;;;;;;;;0.00;0.00;;;;;;;;5073299;27;45493;-62
2023/03/14 14:23:01;;;;;;;;;0.00;0.00;;;;;;;;5073286;27;45426;-60
2023/03/14 14:25:26;;;;;;;;;1.33;1.00;;;;;;;;5072733;27;45430;-62
2023/03/14 14:27:51;;;;;;;;;2.33;1.00;;;;;;;;5066217;27;45384;-61
2023/03/14 14:30:16;;;;;;;;;0.00;0.00;;;;;;;;5051335;28;45468;-57
2023/03/14 14:32:42;;;;;;;;;2.33;0.00;;;;;;;;5067716;27;45482;-57
2023/03/14 14:35:09;;;;;;;;;0.00;0.00;;;;;;;;5054931;28;45499;-61
2023/03/14 14:37:41;;;;;;;;;1.00;0.00;;;;;;;;5072919;27;45580;-61
2023/03/14 14:40:08;;;;;;;;;0.00;0.00;;;;;;;;5072718;27;45943;-60
2023/03/14 14:42:34;;;;;;;;;0.00;0.00;;;;;;;;5073643;27;45507;-58
2023/03/14 14:44:59;;;;;;;;;0.00;0.00;;;;;;;;5076254;27;45760;-58